createdAt,value
2023-03-17T00:02:58.282Z,49
2023-03-17T00:07:58.286Z,49.1
2023-03-17T00:12:58.337Z,49.3
2023-03-17T00:17:58.268Z,49.4
2023-03-17T00:22:58.290Z,49.5
2023-03-17T00:27:58.287Z,49.5
2023-03-17T00:32:58.295Z,49.7
2023-03-17T00:37:58.257Z,49.7
2023-03-17T00:42:58.288Z,49.7
2023-03-17T00:47:58.257Z,49.9
2023-03-17T00:52:58.259Z,50
2023-03-17T00:57:58.253Z,50.1
2023-03-17T01:02:58.294Z,50.2
2023-03-17T01:07:58.242Z,50.4
2023-03-17T01:12:58.324Z,50.5
2023-03-17T01:17:58.244Z,50.6
2023-03-17T01:22:58.263Z,50.7
2023-03-17T01:27:58.247Z,50.9
2023-03-17T01:32:58.270Z,51.1
2023-03-17T01:37:58.258Z,51.3
2023-03-17T01:42:58.330Z,51.4
2023-03-17T01:47:58.357Z,51.4
2023-03-17T01:52:58.253Z,51.6
2023-03-17T01:57:58.238Z,51.9
2023-03-17T02:02:58.260Z,52.1
2023-03-17T02:07:58.239Z,52.3
2023-03-17T02:12:58.314Z,52.3
2023-03-17T02:17:58.239Z,52.3
2023-03-17T02:22:58.257Z,52.4
2023-03-17T02:27:58.236Z,52.6
2023-03-17T02:32:58.290Z,52.7
2023-03-17T02:37:58.236Z,52.8
2023-03-17T02:42:58.305Z,52.9
2023-03-17T02:47:58.236Z,53
2023-03-17T02:52:58.241Z,52.9
2023-03-17T02:57:58.229Z,52.9
2023-03-17T03:02:58.483Z,52.9
2023-03-17T03:07:58.248Z,53
2023-03-17T03:12:58.528Z,52.8
2023-03-17T03:17:58.500Z,52.9
2023-03-17T03:22:58.528Z,52.8
2023-03-17T03:27:58.499Z,52.8
2023-03-17T03:32:58.574Z,52.6
2023-03-17T03:37:58.502Z,52.5
2023-03-17T03:42:58.575Z,52.5
2023-03-17T03:47:58.686Z,52.5
2023-03-17T03:52:58.611Z,52.5
2023-03-17T03:57:58.524Z,52.4
2023-03-17T04:02:58.723Z,52.4
2023-03-17T04:07:58.517Z,52.3
2023-03-17T04:12:58.573Z,52.2
2023-03-17T04:17:58.537Z,52.2
2023-03-17T04:22:58.537Z,52
2023-03-17T04:27:58.526Z,52
2023-03-17T04:32:58.640Z,51.9
2023-03-17T04:37:58.523Z,51.9
2023-03-17T04:42:58.535Z,52.1
2023-03-17T04:47:58.517Z,52.2
2023-03-17T04:52:58.510Z,52.1
2023-03-17T04:57:58.510Z,52
2023-03-17T05:02:58.543Z,52
2023-03-17T05:07:58.497Z,52
2023-03-17T05:12:58.579Z,51.9
2023-03-17T05:17:58.497Z,52
2023-03-17T05:22:58.531Z,52
2023-03-17T05:27:58.615Z,52
2023-03-17T05:32:58.584Z,52
2023-03-17T05:37:58.607Z,52
2023-03-17T05:42:58.691Z,52
2023-03-17T05:47:58.733Z,52
2023-03-17T05:52:58.717Z,51.8
2023-03-17T05:57:58.688Z,51.7
2023-03-17T06:02:58.730Z,51.9
2023-03-17T06:07:58.666Z,51.9
2023-03-17T06:12:58.665Z,51.6
2023-03-17T06:17:58.674Z,51.5
2023-03-17T06:23:04.244Z,51.3
2023-03-17T06:27:58.679Z,51.4
2023-03-17T06:32:59.272Z,51.5
2023-03-17T06:37:58.673Z,51.3
2023-03-17T06:42:58.682Z,51.3
2023-03-17T06:47:58.666Z,51.1
2023-03-17T06:52:58.670Z,51.1
2023-03-17T06:57:58.664Z,51.1
2023-03-17T07:02:58.704Z,51.1
2023-03-17T07:07:58.678Z,51.1
2023-03-17T07:12:58.664Z,51.2
2023-03-17T07:17:58.701Z,51.2
2023-03-17T07:22:58.708Z,51.2
2023-03-17T07:27:58.651Z,51.1
2023-03-17T07:32:58.707Z,51.1
2023-03-17T07:37:58.672Z,51
2023-03-17T07:42:58.688Z,51.1
2023-03-17T07:47:58.649Z,50.8
2023-03-17T07:52:58.653Z,50.7
2023-03-17T07:57:58.714Z,50.6
2023-03-17T08:03:09.177Z,51.5
2023-03-17T08:07:58.682Z,51.9
2023-03-17T08:12:58.667Z,50.8
2023-03-17T08:17:58.656Z,50.4
2023-03-17T08:22:58.672Z,50.2
2023-03-17T08:27:58.689Z,49.7
2023-03-17T08:32:58.704Z,49.7
2023-03-17T08:37:58.623Z,49.5
2023-03-17T08:42:58.739Z,51
2023-03-17T08:47:58.625Z,51
2023-03-17T08:52:58.625Z,50.9
2023-03-17T08:57:58.629Z,50.8
2023-03-17T09:02:59.708Z,49.9
2023-03-17T09:07:58.716Z,50
2023-03-17T09:12:58.630Z,49.3
2023-03-17T09:17:58.633Z,48.3
2023-03-17T09:22:58.637Z,47.6
2023-03-17T09:27:58.627Z,47.3
2023-03-17T09:32:58.679Z,47.4
2023-03-17T09:37:58.645Z,46.7
2023-03-17T09:42:58.633Z,47.1
2023-03-17T09:47:58.616Z,47.4
2023-03-17T09:52:58.674Z,47.7
2023-03-17T09:57:58.633Z,47.8
2023-03-17T10:02:58.651Z,46.4
2023-03-17T10:07:58.621Z,45.7
2023-03-17T10:12:58.591Z,45.7
2023-03-17T10:17:58.628Z,45.5
2023-03-17T10:22:58.626Z,45.5
2023-03-17T10:27:58.612Z,45.4
2023-03-17T10:32:58.623Z,45.2
2023-03-17T10:38:11.954Z,45.2
2023-03-17T10:42:58.603Z,45.1
2023-03-17T10:47:58.618Z,45.4
2023-03-17T10:52:58.640Z,45.5
2023-03-17T10:57:58.595Z,45.3
2023-03-17T11:02:58.654Z,45.5
2023-03-17T11:07:58.803Z,45
2023-03-17T11:12:58.588Z,45.3
2023-03-17T11:17:58.576Z,44.8
2023-03-17T11:22:59.280Z,44.9
2023-03-17T11:27:58.590Z,44.7
2023-03-17T11:32:58.645Z,44.4
2023-03-17T11:37:58.635Z,44
2023-03-17T11:42:58.620Z,43.9
2023-03-17T11:47:59.942Z,43.9
2023-03-17T11:52:58.585Z,43.9
2023-03-17T11:57:58.576Z,43.8
2023-03-17T12:02:58.629Z,44.1
2023-03-17T12:07:58.582Z,44
2023-03-17T12:12:58.556Z,43.9
2023-03-17T12:17:58.565Z,43
2023-03-17T12:22:58.574Z,43.3
2023-03-17T12:27:58.553Z,43.1
2023-03-17T12:32:58.616Z,42.6
2023-03-17T12:37:58.566Z,42.1
2023-03-17T12:42:58.574Z,42.3
2023-03-17T12:47:58.556Z,42.3
2023-03-17T12:52:58.545Z,42.1
2023-03-17T12:57:58.556Z,42.1
2023-03-17T13:02:58.596Z,42.2
2023-03-17T13:07:58.553Z,41.9
2023-03-17T13:12:58.614Z,41.7
2023-03-17T13:17:58.591Z,43.4
2023-03-17T13:22:58.583Z,43.4
2023-03-17T13:27:58.569Z,43.5
2023-03-17T13:32:58.579Z,43.6
2023-03-17T13:37:58.570Z,43.4
2023-03-17T13:42:58.601Z,42.9
2023-03-17T13:47:58.577Z,42.4
2023-03-17T13:52:58.582Z,42
2023-03-17T13:57:58.561Z,41
2023-03-17T14:02:58.583Z,41.5
2023-03-17T14:07:58.553Z,40.9
2023-03-17T14:12:58.633Z,40.7
2023-03-17T14:17:58.564Z,41
2023-03-17T14:22:58.576Z,40.9
2023-03-17T14:27:58.581Z,41.5
2023-03-17T14:32:58.594Z,41
2023-03-17T14:37:58.582Z,41
2023-03-17T14:42:58.589Z,40.8
2023-03-17T14:47:58.619Z,40.7
2023-03-17T14:52:58.560Z,41
2023-03-17T14:57:58.579Z,42
2023-03-17T15:02:58.720Z,42.3
2023-03-17T15:07:58.575Z,40.9
2023-03-17T15:12:58.570Z,40.3
2023-03-17T15:17:58.588Z,41.1
2023-03-17T15:22:58.610Z,41.7
2023-03-17T15:27:58.595Z,41.8
2023-03-17T15:32:58.636Z,40.9
2023-03-17T15:37:58.569Z,40.7
2023-03-17T15:42:58.585Z,40.7
2023-03-17T15:47:58.579Z,40.6
2023-03-17T15:52:58.540Z,40.5
2023-03-17T15:57:58.582Z,40.5
2023-03-17T16:02:58.568Z,40.1
2023-03-17T16:07:58.537Z,40
2023-03-17T16:12:58.608Z,40
2023-03-17T16:17:58.548Z,40.1
2023-03-17T16:22:58.624Z,40.3
2023-03-17T16:27:58.532Z,40.1
2023-03-17T16:32:58.554Z,40.1
2023-03-17T16:37:58.541Z,40.1
2023-03-17T16:42:58.569Z,40.1
2023-03-17T16:47:58.541Z,40.1
2023-03-17T16:52:58.532Z,40.1
2023-03-17T16:58:02.593Z,40.3
2023-03-17T17:02:58.600Z,40.6
2023-03-17T17:07:58.527Z,40.6
2023-03-17T17:12:58.523Z,40.6
2023-03-17T17:17:58.572Z,40.6
2023-03-17T17:22:58.531Z,40.8
2023-03-17T17:27:58.572Z,40.8
2023-03-17T17:32:58.656Z,40.9
2023-03-17T17:37:58.561Z,40.9
2023-03-17T17:42:58.549Z,40.7
2023-03-17T17:47:58.517Z,41
2023-03-17T17:52:58.537Z,40.8
2023-03-17T17:57:58.557Z,40.8
2023-03-17T18:21:56.840Z,41.4
2023-03-17T18:26:56.770Z,41.3
2023-03-17T18:31:56.713Z,41.3
2023-03-17T18:36:56.711Z,41.7
2023-03-17T18:41:56.684Z,41.4
2023-03-17T18:46:56.709Z,41.5
2023-03-17T18:51:56.669Z,41.6
2023-03-17T18:56:56.724Z,41.7
2023-03-17T19:01:56.724Z,41.8
2023-03-17T19:06:56.700Z,42.1
2023-03-17T19:11:56.657Z,42.3
2023-03-17T19:16:56.788Z,42.7
2023-03-17T19:21:56.683Z,44
2023-03-17T19:26:56.671Z,43.6
2023-03-17T19:31:56.661Z,43.7
2023-03-17T19:36:56.705Z,43.8
2023-03-17T19:41:56.680Z,44
2023-03-17T19:46:56.706Z,44.1
2023-03-17T19:51:56.643Z,44.3
2023-03-17T19:56:56.667Z,44.3
2023-03-17T20:01:57.057Z,44.3
2023-03-17T20:06:56.656Z,44.3
2023-03-17T20:11:56.719Z,44.4
2023-03-17T20:16:56.701Z,44.6
2023-03-17T20:21:56.689Z,44.6
2023-03-17T20:26:56.739Z,45
2023-03-17T20:31:56.696Z,45.1
2023-03-17T20:36:56.675Z,45.2
2023-03-17T20:41:56.691Z,45.4
2023-03-17T20:46:56.711Z,45.9
2023-03-17T20:51:56.672Z,45.8
2023-03-17T20:56:56.719Z,45.8
2023-03-17T21:01:56.698Z,45.6
2023-03-17T21:06:56.678Z,45.5
2023-03-17T21:11:56.644Z,45.8
2023-03-17T21:16:56.674Z,45.8
2023-03-17T21:21:56.667Z,46
2023-03-17T21:26:56.689Z,46.2
2023-03-17T21:31:56.677Z,46.4
2023-03-17T21:36:56.673Z,46.6
2023-03-17T21:41:56.685Z,46.5
2023-03-17T21:46:56.662Z,46.5
2023-03-17T21:51:56.670Z,46.7
2023-03-17T21:56:56.720Z,48.4
2023-03-17T22:01:56.729Z,48.5
2023-03-17T22:06:56.720Z,47.4
2023-03-17T22:11:56.655Z,47.2
2023-03-17T22:17:00.856Z,47.3
2023-03-17T22:21:56.657Z,47.4
2023-03-17T22:26:56.819Z,47.3
2023-03-17T22:31:56.718Z,47.4
2023-03-17T22:36:56.738Z,47.4
2023-03-17T22:41:56.761Z,47.4
2023-03-17T22:46:56.708Z,47.4
2023-03-17T22:51:56.692Z,47.5
2023-03-17T22:56:56.721Z,47.5
2023-03-17T23:02:00.112Z,47.6
2023-03-17T23:06:56.687Z,47.6
2023-03-17T23:11:56.886Z,47.8
2023-03-17T23:16:56.789Z,47.9
2023-03-17T23:21:56.846Z,48
2023-03-17T23:26:56.700Z,48
2023-03-17T23:31:56.682Z,48.1
2023-03-17T23:36:56.704Z,48
2023-03-17T23:41:56.679Z,48
2023-03-17T23:47:00.673Z,48.1
2023-03-17T23:51:56.640Z,48.5
2023-03-17T23:56:56.933Z,48.2
